Time;durP1;ratioP1;P1;durP2;ratioP2;P2;SDS_P1;SDS_P2;PMS_P1;PMS_P2;Temp;Humidity;BMP_temperature;BMP_pressure;BME280_temperature;BME280_humidity;BME280_pressure;Samples;Min_cycle;Max_cycle;Signal;HPM_P1;HPM_P2
2022/03/17 00:00:49;;;;;;;;;;;;;;;;;;;;;
2022/03/17 00:03:22;;;;;;;;;;;;;;;21.23;27.68;102090.23;102757;1327;62132;-83
2022/03/17 00:06:17;;;;;;;;;;;;;;;;;;;;;
2022/03/17 00:08:53;;;;;;;;;;;;;;;21.23;27.59;102086.28;102677;1327;75697;-85
2022/03/17 00:11:32;;;;;;;;;;;;;;;21.23;27.60;102089.52;102746;1327;62380;-84
2022/03/17 00:14:21;;;;;;;;;;;;;;;21.24;27.58;102088.59;102360;1335;62196;-82
2022/03/17 00:17:02;;;;;;;;;;;;;;;21.24;27.61;102090.74;102282;1335;72851;-85
2022/03/17 00:19:41;;;;;;;;;;;;;;;21.24;27.52;102087.15;102287;1335;76833;-83
2022/03/17 00:22:15;;;;;;;;;;;;;;;21.25;27.57;102095.00;102354;1335;62153;-85
2022/03/17 00:24:49;;;;;;;;;;;;;;;21.24;27.51;102103.45;102159;1335;61367;-85
2022/03/17 00:27:24;;;;;;;;;;;;;;;21.25;27.56;102106.98;102465;1329;72301;-84
2022/03/17 00:29:50;;;;;;;;;;;;;;;21.25;27.50;102114.15;102597;1329;76641;-80
2022/03/17 00:32:26;;;;;;;;;;;;;;;21.25;27.48;102117.55;102751;1329;62290;-85
2022/03/17 00:37:49;;;;;;;;;;;;;;;21.25;27.47;102115.21;102736;1328;74388;-86
2022/03/17 00:40:23;;;;;;;;;;;;;;;21.25;27.43;102118.61;102590;1329;62207;-88
2022/03/17 00:43:13;;;;;;;;;;;;;;;21.25;27.43;102124.52;102766;1329;62129;-83
2022/03/17 00:45:51;;;;;;;;;;;;;;;21.25;27.45;102124.36;102756;1329;62211;-85
2022/03/17 00:48:19;;;;;;;;;;;;;;;21.25;27.41;102120.42;102621;1329;72968;-83
2022/03/17 00:51:08;;;;;;;;;;;;;;;21.25;27.36;102117.73;102857;1320;75902;-89
2022/03/17 00:53:49;;;;;;;;;;;;;;;;;;;;;
2022/03/17 00:56:29;;;;;;;;;;;;;;;21.25;27.31;102130.05;103378;1320;62257;-84
2022/03/17 00:58:55;;;;;;;;;;;;;;;21.25;27.33;102126.84;103278;1320;72825;-84
2022/03/17 01:01:23;;;;;;;;;;;;;;;21.25;27.32;102125.41;103212;1320;62103;-84
2022/03/17 01:04:09;;;;;;;;;;;;;;;21.25;27.39;102130.60;103290;1320;62091;-85
2022/03/17 01:06:40;;;;;;;;;;;;;;;21.25;27.32;102125.41;103369;1320;62034;-82
2022/03/17 01:09:09;;;;;;;;;;;;;;;21.25;27.34;102126.52;103202;1323;72764;-85
2022/03/17 01:11:48;;;;;;;;;;;;;;;21.25;27.33;102130.41;103180;1321;75748;-84
2022/03/17 01:14:32;;;;;;;;;;;;;;;21.26;27.34;102131.13;103126;1323;62858;-84
2022/03/17 01:17:08;;;;;;;;;;;;;;;21.26;27.31;102136.80;103141;1321;62018;-83
2022/03/17 01:19:54;;;;;;;;;;;;;;;21.26;27.23;102139.52;103180;1322;72874;-87
2022/03/17 01:22:21;;;;;;;;;;;;;;;21.26;27.32;102139.48;103275;1323;76552;-83
2022/03/17 01:24:59;;;;;;;;;;;;;;;;;;;;;
2022/03/17 01:27:39;;;;;;;;;;;;;;;21.27;27.26;102141.45;103321;1320;62131;-84
2022/03/17 01:30:12;;;;;;;;;;;;;;;21.26;27.22;102143.61;103258;1320;72645;-84
2022/03/17 01:32:46;;;;;;;;;;;;;;;21.26;27.20;102146.66;103363;1320;76097;-83
2022/03/17 01:35:21;;;;;;;;;;;;;;;21.26;27.25;102143.25;103380;1320;61987;-87
2022/03/17 01:37:55;;;;;;;;;;;;;;;21.28;27.15;102141.79;103347;1320;62045;-83
2022/03/17 01:40:26;;;;;;;;;;;;;;;21.27;27.20;102133.37;103365;1320;73486;-85
2022/03/17 01:43:15;;;;;;;;;;;;;;;21.28;27.24;102135.87;103275;1320;73960;-85
2022/03/17 01:45:54;;;;;;;;;;;;;;;21.27;27.19;102142.85;103366;1320;62164;-82
2022/03/17 01:48:24;;;;;;;;;;;;;;;21.27;27.07;102149.14;103372;1319;62119;-84
2022/03/17 01:51:02;;;;;;;;;;;;;;;21.27;27.12;102152.89;103214;1318;62237;-87
2022/03/17 01:53:36;;;;;;;;;;;;;;;21.28;27.09;102152.52;103230;1319;75557;-84
2022/03/17 01:56:05;;;;;;;;;;;;;;;21.27;27.06;102156.13;103239;1320;62145;-87
2022/03/17 01:59:01;;;;;;;;;;;;;;;21.28;27.08;102157.17;103239;1320;63078;-80
2022/03/17 02:01:47;;;;;;;;;;;;;;;;;;;;;
2022/03/17 02:04:24;;;;;;;;;;;;;;;;;;;;;
2022/03/17 02:06:58;;;;;;;;;;;;;;;21.27;27.08;102174.19;103395;1320;60175;-86
2022/03/17 02:09:36;;;;;;;;;;;;;;;21.27;27.06;102181.55;103227;1320;62316;-85
2022/03/17 02:15:13;;;;;;;;;;;;;;;21.27;27.09;102186.39;103271;1319;74286;-85
2022/03/17 02:17:58;;;;;;;;;;;;;;;21.27;27.06;102187.64;103204;1320;61892;-84
2022/03/17 02:20:47;;;;;;;;;;;;;;;21.27;27.01;102185.85;103369;1320;62097;-86
2022/03/17 02:26:15;;;;;;;;;;;;;;;21.27;26.97;102195.14;103363;1320;75991;-85
2022/03/17 02:28:46;;;;;;;;;;;;;;;21.28;26.95;102194.05;103357;1320;61967;-85
2022/03/17 02:31:25;;;;;;;;;;;;;;;21.27;26.80;102201.43;103342;1320;61989;-86
2022/03/17 02:34:10;;;;;;;;;;;;;;;21.26;26.89;102201.81;103223;1320;72860;-83
2022/03/17 02:36:42;;;;;;;;;;;;;;;21.27;26.96;102204.30;103299;1320;75759;-84
2022/03/17 02:39:08;;;;;;;;;;;;;;;21.27;26.92;102205.73;103241;1320;61996;-85
2022/03/17 02:41:41;;;;;;;;;;;;;;;21.27;26.84;102206.08;103232;1320;60362;-82
2022/03/17 02:44:33;;;;;;;;;;;;;;;21.26;26.91;102210.76;103106;1323;71676;-85
2022/03/17 02:47:10;;;;;;;;;;;;;;;21.26;26.88;102212.21;103377;1320;75557;-85
2022/03/17 02:49:59;;;;;;;;;;;;;;;;;;;;;
2022/03/17 02:52:38;;;;;;;;;;;;;;;21.26;26.83;102218.61;103222;1320;62123;-87
2022/03/17 02:55:04;;;;;;;;;;;;;;;21.27;26.83;102221.65;103215;1320;72700;-84
2022/03/17 02:57:56;;;;;;;;;;;;;;;21.27;26.79;102226.14;102984;1323;62116;-84
2022/03/17 03:00:40;;;;;;;;;;;;;;;;;;;;;
2022/03/17 03:03:17;;;;;;;;;;;;;;;;;;;;;
2022/03/17 03:06:04;;;;;;;;;;;;;;;21.27;26.78;102227.55;102712;1329;71754;-84
2022/03/17 03:08:38;;;;;;;;;;;;;;;21.28;26.82;102233.98;102595;1328;76632;-83
2022/03/17 03:11:23;;;;;;;;;;;;;;;21.27;26.74;102240.80;102714;1328;62126;-85
2022/03/17 03:14:21;;;;;;;;;;;;;;;21.28;26.76;102247.77;102169;1334;62084;-84
2022/03/17 03:17:00;;;;;;;;;;;;;;;21.28;26.80;102248.10;102094;1334;74078;-85
2022/03/17 03:19:26;;;;;;;;;;;;;;;21.28;26.70;102256.34;102179;1334;75651;-83
2022/03/17 03:22:01;;;;;;;;;;;;;;;21.29;26.74;102253.09;102013;1334;62149;-86
2022/03/17 03:24:26;;;;;;;;;;;;;;;21.29;26.72;102261.52;101988;1334;62194;-87
2022/03/17 03:27:05;;;;;;;;;;;;;;;21.29;26.68;102263.48;102188;1334;62146;-85
2022/03/17 03:29:52;;;;;;;;;;;;;;;21.29;26.72;102263.98;102089;1334;76562;-84
2022/03/17 03:32:39;;;;;;;;;;;;;;;21.29;26.74;102269.55;102212;1334;62249;-86
2022/03/17 03:37:22;;;;;;;;;;;;;;;21.29;26.72;102271.34;102215;1334;62127;-88
2022/03/17 03:37:50;;;;;;;;;;;;;;;21.29;26.69;102271.52;102417;1327;74051;-85
2022/03/17 03:40:50;;;;;;;;;;;;;;;21.30;26.65;102274.71;102766;1329;75588;-87
2022/03/17 03:43:22;;;;;;;;;;;;;;;21.30;26.63;102279.90;102607;1328;61647;-85
2022/03/17 03:45:50;;;;;;;;;;;;;;;21.30;26.64;102282.77;102718;1329;62092;-84
2022/03/17 03:48:21;;;;;;;;;;;;;;;21.30;26.63;102290.65;102591;1329;72858;-85
2022/03/17 03:51:00;;;;;;;;;;;;;;;;;;;;;
2022/03/17 03:54:13;;;;;;;;;;;;;;;21.29;26.58;102303.55;103144;1323;62051;-84
2022/03/17 03:56:15;;;;;;;;;;;;;;;21.29;26.61;102304.98;103132;1323;62111;-86
2022/03/17 03:58:43;;;;;;;;;;;;;;;21.29;26.57;102316.27;103168;1320;72993;-85
2022/03/17 04:01:37;;;;;;;;;;;;;;;21.29;26.64;102325.77;103217;1320;75551;-87
2022/03/17 04:04:24;;;;;;;;;;;;;;;21.30;26.58;102330.05;103202;1320;62116;-84
2022/03/17 04:06:49;;;;;;;;;;;;;;;21.30;26.66;102336.13;103287;1321;62033;-82
2022/03/17 04:09:35;;;;;;;;;;;;;;;21.30;26.71;102340.77;103240;1320;73998;-80
2022/03/17 04:12:11;;;;;;;;;;;;;;;21.30;26.68;102342.93;103195;1320;75739;-82
2022/03/17 04:14:42;;;;;;;;;;;;;;;21.30;26.54;102345.96;103127;1322;61994;-88
2022/03/17 04:17:12;;;;;;;;;;;;;;;21.30;26.61;102349.36;103061;1323;62132;-86
2022/03/17 04:20:09;;;;;;;;;;;;;;;21.30;26.60;102355.44;103232;1320;71420;-83
2022/03/17 04:22:35;;;;;;;;;;;;;;;21.30;26.58;102361.54;103378;1320;76529;-83
2022/03/17 04:25:21;;;;;;;;;;;;;;;21.30;26.56;102364.39;103362;1320;62222;-85
2022/03/17 04:28:11;;;;;;;;;;;;;;;21.31;26.58;102363.31;103188;1322;62061;-82
2022/03/17 04:30:45;;;;;;;;;;;;;;;21.31;26.57;102365.27;102629;1327;73948;-83
2022/03/17 04:33:14;;;;;;;;;;;;;;;21.32;26.53;102370.59;102667;1329;75622;-85
2022/03/17 04:35:54;;;;;;;;;;;;;;;21.32;26.56;102368.10;102608;1329;62126;-83
2022/03/17 04:38:32;;;;;;;;;;;;;;;21.32;26.58;102366.83;102640;1329;62152;-85
2022/03/17 04:41:03;;;;;;;;;;;;;;;21.32;26.49;102373.27;102579;1329;72930;-85
2022/03/17 04:43:29;;;;;;;;;;;;;;;21.32;26.54;102374.36;102623;1328;75555;-85
2022/03/17 04:46:04;;;;;;;;;;;;;;;21.31;26.54;102375.83;102622;1329;62114;-83
2022/03/17 04:48:38;;;;;;;;;;;;;;;21.31;26.55;102381.36;102699;1328;62133;-85
2022/03/17 04:51:15;;;;;;;;;;;;;;;21.31;26.55;102389.44;102592;1328;74022;-86
2022/03/17 04:53:50;;;;;;;;;;;;;;;21.31;26.49;102395.70;102700;1329;76770;-85
2022/03/17 04:56:17;;;;;;;;;;;;;;;21.31;26.48;102404.84;102620;1328;62088;-84
2022/03/17 04:58:51;;;;;;;;;;;;;;;21.31;26.49;102412.16;102474;1331;62153;-89
2022/03/17 05:01:33;;;;;;;;;;;;;;;21.31;26.39;102418.98;102562;1329;73868;-85
2022/03/17 05:03:59;;;;;;;;;;;;;;;21.31;26.49;102419.54;102496;1331;76739;-84
2022/03/17 05:06:30;;;;;;;;;;;;;;;21.30;26.37;102421.90;102685;1328;62110;-86
2022/03/17 05:09:16;;;;;;;;;;;;;;;21.29;26.35;102426.94;102974;1323;61956;-85
2022/03/17 05:11:41;;;;;;;;;;;;;;;21.29;26.36;102434.46;103032;1323;71898;-84
2022/03/17 05:14:11;;;;;;;;;;;;;;;21.29;26.30;102438.75;103034;1323;62080;-84
2022/03/17 05:17:07;;;;;;;;;;;;;;;21.29;26.21;102445.39;103245;1318;62135;-83
2022/03/17 05:19:55;;;;;;;;;;;;;;;21.30;26.13;102447.34;103368;1320;62084;-82
2022/03/17 05:22:27;;;;;;;;;;;;;;;21.30;26.20;102445.72;102776;1323;70656;-89
2022/03/17 05:24:57;;;;;;;;;;;;;;;21.29;26.03;102452.20;103083;1323;76460;-85
2022/03/17 05:27:23;;;;;;;;;;;;;;;21.27;26.03;102454.79;103030;1322;61875;-82
2022/03/17 05:29:50;;;;;;;;;;;;;;;21.26;26.08;102457.17;103075;1320;62112;-82
2022/03/17 05:32:16;;;;;;;;;;;;;;;21.25;25.98;102456.32;102878;1323;62366;-82
2022/03/17 05:34:41;;;;;;;;;;;;;;;21.24;25.96;102456.71;103080;1320;62176;-83
2022/03/17 05:37:07;;;;;;;;;;;;;;;21.23;25.96;102459.45;102925;1320;62116;-82
2022/03/17 05:39:34;;;;;;;;;;;;;;;21.22;25.87;102465.56;103131;1320;62119;-82
2022/03/17 05:42:06;;;;;;;;;;;;;;;21.19;25.79;102466.45;103029;1320;72928;-82
2022/03/17 05:44:32;;;;;;;;;;;;;;;21.11;25.65;102475.39;103092;1320;74806;-80
2022/03/17 05:46:57;;;;;;;;;;;;;;;20.95;25.61;102475.20;102819;1320;62113;-80
2022/03/17 05:49:30;;;;;;;;;;;;;;;20.86;25.54;102476.13;102929;1320;62581;-81
2022/03/17 05:51:56;;;;;;;;;;;;;;;20.70;25.35;102477.16;103235;1320;72932;-81
2022/03/17 05:54:21;;;;;;;;;;;;;;;20.56;25.28;102477.02;103392;1320;62232;-81
2022/03/17 05:56:46;;;;;;;;;;;;;;;20.44;25.28;102479.15;103195;1320;60630;-82
2022/03/17 05:59:12;;;;;;;;;;;;;;;20.34;25.19;102487.08;103137;1320;60894;-80
2022/03/17 06:01:39;;;;;;;;;;;;;;;20.20;25.34;102491.92;103078;1320;62301;-80
2022/03/17 06:04:04;;;;;;;;;;;;;;;20.14;25.26;102498.27;103675;1320;73145;-83
2022/03/17 06:06:31;;;;;;;;;;;;;;;20.03;25.18;102504.59;104013;1319;61403;-81
2022/03/17 06:08:57;;;;;;;;;;;;;;;19.85;24.99;102506.20;102898;1319;62105;-80
2022/03/17 06:11:22;;;;;;;;;;;;;;;19.75;25.07;102509.58;102660;1320;62322;-81
2022/03/17 06:13:48;;;;;;;;;;;;;;;19.81;25.20;102512.43;103409;1319;60868;-81
2022/03/17 06:16:14;;;;;;;;;;;;;;;19.87;25.14;102512.55;103441;1320;62205;-80
2022/03/17 06:18:41;;;;;;;;;;;;;;;19.95;25.02;102510.45;103153;1320;62224;-81
2022/03/17 06:21:08;;;;;;;;;;;;;;;20.02;24.95;102513.57;103225;1320;62264;-80
2022/03/17 06:23:34;;;;;;;;;;;;;;;20.10;24.97;102519.15;103436;1320;62207;-82
2022/03/17 06:25:59;;;;;;;;;;;;;;;20.19;24.93;102513.63;103146;1320;63879;-80
2022/03/17 06:28:25;;;;;;;;;;;;;;;20.27;24.93;102515.25;103128;1320;75640;-80
2022/03/17 06:30:51;;;;;;;;;;;;;;;20.36;24.83;102517.23;103209;1320;60242;-80
2022/03/17 06:33:16;;;;;;;;;;;;;;;20.43;24.69;102522.66;103165;1318;62112;-80
2022/03/17 06:35:42;;;;;;;;;;;;;;;20.50;24.76;102522.92;103226;1320;62176;-81
2022/03/17 06:38:08;;;;;;;;;;;;;;;20.56;24.73;102524.43;102800;1320;60971;-80
2022/03/17 06:40:36;;;;;;;;;;;;;;;20.62;24.69;102528.13;103013;1319;75248;-80
2022/03/17 06:43:01;;;;;;;;;;;;;;;20.68;24.75;102530.73;103146;1320;61437;-79
2022/03/17 06:45:27;;;;;;;;;;;;;;;20.72;24.86;102529.86;102936;1320;62318;-84
2022/03/17 06:47:55;;;;;;;;;;;;;;;20.77;24.85;102537.36;102808;1320;718826;-79
2022/03/17 06:50:21;;;;;;;;;;;;;;;20.82;24.99;102530.73;103131;1319;62832;-81
2022/03/17 06:52:47;;;;;;;;;;;;;;;20.84;24.91;102539.05;102932;1320;62132;-81
2022/03/17 06:55:13;;;;;;;;;;;;;;;20.79;24.86;102539.09;102946;1320;62228;-80
2022/03/17 06:57:38;;;;;;;;;;;;;;;20.72;24.94;102539.73;103448;1319;62116;-80
2022/03/17 07:00:05;;;;;;;;;;;;;;;20.69;24.82;102541.27;103178;1320;61524;-82
2022/03/17 07:02:30;;;;;;;;;;;;;;;20.65;24.69;102538.59;103180;1319;75492;-81
2022/03/17 07:04:56;;;;;;;;;;;;;;;20.55;24.85;102543.25;103458;1320;62793;-79
2022/03/17 07:07:21;;;;;;;;;;;;;;;20.48;25.10;102551.05;103178;1320;62710;-80
2022/03/17 07:09:48;;;;;;;;;;;;;;;20.49;25.25;102553.89;103012;1320;62035;-82
2022/03/17 07:12:13;;;;;;;;;;;;;;;20.51;25.27;102553.44;103199;1320;62103;-79
2022/03/17 07:14:39;;;;;;;;;;;;;;;20.57;25.36;102561.43;103208;1320;62234;-79
2022/03/17 07:17:14;;;;;;;;;;;;;;;20.64;25.50;102565.62;102947;1320;62385;-80
2022/03/17 07:19:40;;;;;;;;;;;;;;;20.69;25.59;102567.56;103132;1319;62002;-79
2022/03/17 07:22:07;;;;;;;;;;;;;;;20.75;25.56;102565.19;102959;1320;62110;-81
2022/03/17 07:24:33;;;;;;;;;;;;;;;20.80;25.78;102571.42;103479;1320;62122;-80
2022/03/17 07:26:59;;;;;;;;;;;;;;;20.87;25.60;102576.52;102968;1320;62079;-83
2022/03/17 07:29:25;;;;;;;;;;;;;;;20.91;25.59;102579.89;103137;1320;60794;-81
2022/03/17 07:31:56;;;;;;;;;;;;;;;20.95;25.62;102586.73;102959;1320;62061;-81
2022/03/17 07:34:23;;;;;;;;;;;;;;;20.98;25.72;102586.79;103367;1318;75770;-81
2022/03/17 07:36:51;;;;;;;;;;;;;;;20.98;25.64;102586.57;103167;1320;60317;-82
2022/03/17 07:39:16;;;;;;;;;;;;;;;21.00;25.68;102588.66;103826;1320;60613;-81
2022/03/17 07:41:42;;;;;;;;;;;;;;;21.01;25.71;102597.20;103542;1320;60071;-80
2022/03/17 07:44:09;;;;;;;;;;;;;;;21.02;25.71;102594.63;103385;1319;60362;-79
2022/03/17 07:46:34;;;;;;;;;;;;;;;21.04;25.73;102595.98;103182;1320;62107;-80
2022/03/17 07:49:00;;;;;;;;;;;;;;;21.07;25.62;102594.63;102973;1320;64256;-80
2022/03/17 07:51:25;;;;;;;;;;;;;;;21.09;25.69;102592.90;102814;1320;62055;-81
2022/03/17 07:53:51;;;;;;;;;;;;;;;21.05;25.57;102600.82;102786;1320;72730;-83
2022/03/17 07:56:16;;;;;;;;;;;;;;;20.95;25.54;102583.30;103076;1320;60319;-82
2022/03/17 07:58:42;;;;;;;;;;;;;;;20.79;25.48;102589.71;103112;1320;64353;-82
2022/03/17 08:01:09;;;;;;;;;;;;;;;20.76;25.54;102588.21;103077;1320;63001;-84
2022/03/17 08:03:34;;;;;;;;;;;;;;;20.79;25.60;102594.36;103048;1320;60216;-82
2022/03/17 08:06:00;;;;;;;;;;;;;;;20.80;25.57;102594.70;102933;1323;60588;-81
2022/03/17 08:08:26;;;;;;;;;;;;;;;20.79;25.59;102593.82;103064;1323;60557;-79
2022/03/17 08:10:51;;;;;;;;;;;;;;;20.79;25.56;102590.77;102872;1323;62148;-82
2022/03/17 08:13:17;;;;;;;;;;;;;;;20.81;25.53;102591.05;103084;1320;60494;-81
2022/03/17 08:15:43;;;;;;;;;;;;;;;20.84;25.47;102595.59;102983;1320;62192;-81
2022/03/17 08:18:08;;;;;;;;;;;;;;;20.87;25.48;102599.39;103245;1320;62527;-81
2022/03/17 08:20:39;;;;;;;;;;;;;;;20.91;25.36;102606.02;103100;1320;62122;-81
2022/03/17 08:23:05;;;;;;;;;;;;;;;20.96;25.34;102607.63;103211;1319;62125;-80
2022/03/17 08:25:30;;;;;;;;;;;;;;;21.00;25.37;102608.71;102878;1320;62104;-81
2022/03/17 08:27:56;;;;;;;;;;;;;;;21.03;25.20;102608.21;103252;1319;62395;-80
2022/03/17 08:30:21;;;;;;;;;;;;;;;21.06;25.25;102600.71;103329;1319;62006;-81
2022/03/17 08:32:48;;;;;;;;;;;;;;;21.09;25.26;102609.20;103265;1320;62096;-80
2022/03/17 08:35:14;;;;;;;;;;;;;;;21.09;25.40;102613.48;103380;1320;61370;-80
2022/03/17 08:37:40;;;;;;;;;;;;;;;21.08;25.37;102609.94;103262;1319;62154;-79
2022/03/17 08:40:06;;;;;;;;;;;;;;;21.12;25.53;102611.06;102613;1320;62256;-79
2022/03/17 08:42:31;;;;;;;;;;;;;;;21.14;25.53;102606.31;102675;1320;62198;-79
2022/03/17 08:44:57;;;;;;;;;;;;;;;21.17;25.60;102606.01;102574;1322;62980;-79
2022/03/17 08:50:07;;;;;;;;;;;;;;;21.23;25.67;102613.61;102514;1319;62013;-80
2022/03/17 08:52:32;;;;;;;;;;;;;;;21.25;25.77;102611.22;102411;1320;62069;-80
2022/03/17 08:54:58;;;;;;;;;;;;;;;21.16;25.59;102604.46;102690;1320;62210;-80
2022/03/17 08:57:24;;;;;;;;;;;;;;;21.04;25.53;102608.88;102516;1320;62209;-80
2022/03/17 08:59:50;;;;;;;;;;;;;;;21.01;25.88;102612.42;102468;1319;64128;-79
2022/03/17 09:02:15;;;;;;;;;;;;;;;20.98;26.02;102616.46;102634;1320;62154;-80
2022/03/17 09:04:42;;;;;;;;;;;;;;;20.76;25.66;102620.58;102505;1319;72791;-81
2022/03/17 09:07:07;;;;;;;;;;;;;;;20.48;25.55;102626.89;102780;1319;76727;-79
2022/03/17 09:09:34;;;;;;;;;;;;;;;20.37;25.49;102629.09;103053;1320;60249;-79
2022/03/17 09:12:00;;;;;;;;;;;;;;;20.30;25.64;102631.73;103212;1319;62147;-82
2022/03/17 09:14:26;;;;;;;;;;;;;;;20.33;25.69;102628.22;102979;1320;62603;-81
2022/03/17 09:16:52;;;;;;;;;;;;;;;20.38;25.70;102632.46;102916;1319;63768;-81
2022/03/17 09:19:20;;;;;;;;;;;;;;;20.41;25.57;102633.59;103031;1320;60849;-83
2022/03/17 09:21:46;;;;;;;;;;;;;;;20.32;25.32;102637.20;103149;1320;61311;-81
2022/03/17 09:24:11;;;;;;;;;;;;;;;20.30;25.33;102642.27;103178;1319;62129;-80
2022/03/17 09:26:37;;;;;;;;;;;;;;;20.34;25.32;102638.70;103076;1320;62125;-80
2022/03/17 09:29:03;;;;;;;;;;;;;;;20.40;25.26;102642.05;103128;1320;60278;-80
2022/03/17 09:31:29;;;;;;;;;;;;;;;20.39;25.06;102644.44;102984;1320;62164;-80
2022/03/17 09:33:57;;;;;;;;;;;;;;;20.31;25.07;102642.25;102748;1320;61372;-80
2022/03/17 09:36:23;;;;;;;;;;;;;;;20.31;25.53;102649.94;102987;1319;62125;-80
2022/03/17 09:41:35;;;;;;;;;;;;;;;20.41;25.53;102643.98;103137;1319;62135;-82
2022/03/17 09:44:04;;;;;;;;;;;;;;;20.48;25.33;102639.77;103172;1320;63826;-80
2022/03/17 09:46:31;;;;;;;;;;;;;;;20.54;25.52;102646.67;102816;1320;72861;-78
2022/03/17 09:48:56;;;;;;;;;;;;;;;20.61;25.50;102650.53;102805;1320;76380;-80
2022/03/17 09:51:23;;;;;;;;;;;;;;;20.68;25.30;102646.69;102944;1318;63133;-79
2022/03/17 09:53:52;;;;;;;;;;;;;;;20.63;25.06;102647.08;103320;1319;62222;-79
2022/03/17 09:56:24;;;;;;;;;;;;;;;20.27;24.60;102643.98;103125;1320;74277;-81
2022/03/17 09:58:51;;;;;;;;;;;;;;;20.12;24.52;102646.17;102701;1320;75535;-80
2022/03/17 10:01:17;;;;;;;;;;;;;;;20.05;24.41;102655.37;102323;1319;62268;-81
2022/03/17 10:03:43;;;;;;;;;;;;;;;19.91;24.39;102654.10;103261;1319;61034;-81
2022/03/17 10:06:10;;;;;;;;;;;;;;;19.85;24.55;102661.82;103156;1320;61136;-80
2022/03/17 10:08:38;;;;;;;;;;;;;;;19.82;24.32;102662.45;102397;1320;62021;-80
2022/03/17 10:11:06;;;;;;;;;;;;;;;19.74;24.46;102660.95;103997;1319;61078;-80
2022/03/17 10:13:34;;;;;;;;;;;;;;;19.84;25.07;102657.59;104052;1319;60638;-80
2022/03/17 10:16:07;;;;;;;;;;;;;;;19.99;25.66;102665.06;103925;1319;72842;-79
2022/03/17 10:18:36;;;;;;;;;;;;;;;20.13;25.74;102659.20;103752;1319;75604;-79
2022/03/17 10:21:07;;;;;;;;;;;;;;;20.23;25.73;102655.20;104257;1319;60672;-80
2022/03/17 10:23:33;;;;;;;;;;;;;;;20.34;25.65;102659.63;103833;1319;61315;-80
2022/03/17 10:25:59;;;;;;;;;;;;;;;20.42;25.62;102656.65;102463;1320;61997;-82
2022/03/17 10:28:26;;;;;;;;;;;;;;;20.49;25.48;102661.17;102143;1323;75392;-82
2022/03/17 10:31:05;;;;;;;;;;;;;;;20.56;25.42;102665.73;102359;1322;62174;-80
2022/03/17 10:33:32;;;;;;;;;;;;;;;20.64;25.36;102661.34;102617;1322;61915;-81
2022/03/17 10:36:21;;;;;;;;;;;;;;;20.68;25.28;102663.12;102432;1323;73376;-80
2022/03/17 10:38:47;;;;;;;;;;;;;;;20.73;25.21;102661.71;102280;1323;76682;-81
2022/03/17 10:41:13;;;;;;;;;;;;;;;20.78;25.11;102660.80;102083;1321;61989;-81
2022/03/17 10:43:44;;;;;;;;;;;;;;;20.82;25.07;102658.66;102435;1322;62253;-80
2022/03/17 10:46:11;;;;;;;;;;;;;;;20.86;25.08;102658.13;102163;1323;72732;-81
2022/03/17 10:48:57;;;;;;;;;;;;;;;20.89;25.14;102657.66;102202;1322;76735;-81
2022/03/17 10:51:40;;;;;;;;;;;;;;;20.92;25.09;102653.77;102861;1322;61976;-82
2022/03/17 10:54:06;;;;;;;;;;;;;;;20.83;24.71;102659.52;103163;1323;62330;-82
2022/03/17 10:56:32;;;;;;;;;;;;;;;20.53;24.41;102650.65;103099;1322;61266;-80
2022/03/17 10:58:58;;;;;;;;;;;;;;;20.20;24.09;102653.21;103132;1322;63335;-81
2022/03/17 11:01:42;;;;;;;;;;;;;;;19.88;23.97;102656.90;102380;1323;62163;-81
2022/03/17 11:04:11;;;;;;;;;;;;;;;19.59;24.03;102655.57;102375;1323;62237;-81
2022/03/17 11:06:38;;;;;;;;;;;;;;;19.64;24.06;102658.61;102512;1319;71516;-81
2022/03/17 11:09:08;;;;;;;;;;;;;;;19.26;23.41;102657.81;102470;1320;74539;-80
2022/03/17 11:11:37;;;;;;;;;;;;;;;19.12;23.69;102662.75;102874;1319;61938;-82
2022/03/17 11:14:02;;;;;;;;;;;;;;;19.26;23.87;102660.27;102619;1320;62053;-81
2022/03/17 11:16:41;;;;;;;;;;;;;;;19.46;23.94;102666.78;102455;1319;60475;-80
2022/03/17 11:19:07;;;;;;;;;;;;;;;19.64;24.05;102667.20;102705;1319;76416;-80
2022/03/17 11:21:34;;;;;;;;;;;;;;;19.79;24.16;102666.50;102540;1320;62404;-80
2022/03/17 11:24:05;;;;;;;;;;;;;;;19.94;24.13;102670.08;102871;1319;62189;-82
2022/03/17 11:26:39;;;;;;;;;;;;;;;20.07;24.15;102668.17;102413;1320;72868;-82
2022/03/17 11:29:09;;;;;;;;;;;;;;;20.18;24.14;102660.98;102732;1319;75578;-80
2022/03/17 11:31:54;;;;;;;;;;;;;;;20.26;24.23;102649.73;103212;1319;61654;-80
2022/03/17 11:34:38;;;;;;;;;;;;;;;20.36;24.43;102644.90;102922;1319;62253;-80
2022/03/17 11:37:21;;;;;;;;;;;;;;;20.44;24.27;102644.75;103046;1319;74498;-81
2022/03/17 11:39:55;;;;;;;;;;;;;;;20.52;24.47;102642.85;102651;1319;75775;-80
2022/03/17 11:42:32;;;;;;;;;;;;;;;20.57;24.57;102648.90;102701;1320;62168;-80
2022/03/17 11:45:19;;;;;;;;;;;;;;;20.62;24.64;102649.59;102597;1320;61991;-82
2022/03/17 11:47:46;;;;;;;;;;;;;;;20.59;24.43;102655.97;102811;1319;72975;-80
2022/03/17 11:50:24;;;;;;;;;;;;;;;20.42;24.19;102657.70;102583;1320;62184;-82
2022/03/17 11:52:56;;;;;;;;;;;;;;;20.22;24.08;102654.73;103093;1319;61998;-81
2022/03/17 11:55:56;;;;;;;;;;;;;;;20.14;23.90;102658.27;102358;1320;62138;-80
2022/03/17 11:58:25;;;;;;;;;;;;;;;19.86;23.61;102659.98;102116;1322;73717;-80
2022/03/17 12:00:54;;;;;;;;;;;;;;;19.71;23.60;102653.72;102285;1323;75830;-80
2022/03/17 12:03:37;;;;;;;;;;;;;;;19.75;23.67;102653.41;103786;1321;60615;-81
2022/03/17 12:06:22;;;;;;;;;;;;;;;19.82;23.62;102652.49;103912;1322;61272;-82
2022/03/17 12:09:14;;;;;;;;;;;;;;;19.81;23.42;102658.77;103087;1323;73792;-81
2022/03/17 12:11:42;;;;;;;;;;;;;;;19.80;23.49;102652.70;102039;1329;76142;-81
2022/03/17 12:14:21;;;;;;;;;;;;;;;19.77;23.44;102654.96;102905;1329;62260;-80
2022/03/17 12:17:09;;;;;;;;;;;;;;;19.71;23.24;102651.77;101986;1329;62119;-80
2022/03/17 12:19:48;;;;;;;;;;;;;;;19.78;23.31;102649.73;102048;1329;74102;-80
2022/03/17 12:22:15;;;;;;;;;;;;;;;19.88;23.24;102657.80;102007;1329;75720;-81
2022/03/17 12:24:47;;;;;;;;;;;;;;;19.98;23.22;102660.82;101930;1329;62249;-79
2022/03/17 12:27:15;;;;;;;;;;;;;;;20.11;23.15;102657.48;102009;1329;61967;-80
2022/03/17 12:29:41;;;;;;;;;;;;;;;20.19;23.17;102652.86;102058;1329;72996;-80
2022/03/17 12:32:10;;;;;;;;;;;;;;;20.28;23.17;102650.58;102045;1329;62221;-82
2022/03/17 12:34:36;;;;;;;;;;;;;;;20.35;23.27;102650.48;102164;1327;62164;-81
2022/03/17 12:37:05;;;;;;;;;;;;;;;20.41;23.27;102661.33;102318;1326;62238;-81
2022/03/17 12:39:32;;;;;;;;;;;;;;;20.42;23.36;102659.86;102305;1329;73347;-79
2022/03/17 12:41:59;;;;;;;;;;;;;;;20.32;23.32;102662.91;102155;1328;76766;-82
2022/03/17 12:44:25;;;;;;;;;;;;;;;20.14;23.16;102660.55;101912;1328;62356;-82
2022/03/17 12:46:51;;;;;;;;;;;;;;;20.03;23.41;102663.65;101998;1329;62258;-80
2022/03/17 12:49:22;;;;;;;;;;;;;;;20.06;23.42;102664.65;102438;1320;72902;-81
2022/03/17 12:51:51;;;;;;;;;;;;;;;20.09;23.65;102667.89;102483;1320;75591;-80
2022/03/17 12:54:16;;;;;;;;;;;;;;;20.10;23.49;102659.13;102618;1319;61985;-81
2022/03/17 12:56:46;;;;;;;;;;;;;;;20.07;23.42;102664.95;102485;1323;62203;-81
2022/03/17 12:59:11;;;;;;;;;;;;;;;20.05;23.38;102663.21;102633;1319;74095;-81
2022/03/17 13:01:40;;;;;;;;;;;;;;;20.08;23.38;102661.69;102714;1320;62174;-81
2022/03/17 13:04:06;;;;;;;;;;;;;;;20.12;23.28;102659.38;103604;1318;62100;-81
2022/03/17 13:09:17;;;;;;;;;;;;;;;20.25;23.08;102659.26;102844;1320;71986;-82
2022/03/17 13:14:29;;;;;;;;;;;;;;;20.35;23.00;102654.77;102926;1319;62013;-83
2022/03/17 13:16:59;;;;;;;;;;;;;;;20.40;22.96;102654.76;102961;1319;62042;-81
2022/03/17 13:19:25;;;;;;;;;;;;;;;20.45;22.91;102651.34;103069;1319;72978;-81
2022/03/17 13:22:02;;;;;;;;;;;;;;;20.50;22.95;102647.73;102976;1319;62214;-81